sensor_id;sensor_type;location;lat;lon;timestamp;P1;durP1;ratioP1;P2;durP2;ratioP2
47529;SDS011;33272;51.922;7.730;2022-12-05T00:00:26;33.07;;;21.13;;
47529;SDS011;33272;51.922;7.730;2022-12-05T00:02:53;34.20;;;20.20;;
47529;SDS011;33272;51.922;7.730;2022-12-05T00:05:21;34.40;;;20.07;;
47529;SDS011;33272;51.922;7.730;2022-12-05T00:07:48;31.13;;;19.57;;
47529;SDS011;33272;51.922;7.730;2022-12-05T00:10:15;30.67;;;19.93;;
47529;SDS011;33272;51.922;7.730;2022-12-05T00:12:43;29.53;;;19.90;;
47529;SDS011;33272;51.922;7.730;2022-12-05T00:15:10;34.23;;;22.33;;
47529;SDS011;33272;51.922;7.730;2022-12-05T00:17:38;28.97;;;19.47;;
47529;SDS011;33272;51.922;7.730;2022-12-05T00:20:06;30.57;;;19.70;;
47529;SDS011;33272;51.922;7.730;2022-12-05T00:22:34;32.13;;;20.07;;
47529;SDS011;33272;51.922;7.730;2022-12-05T00:25:06;32.27;;;20.37;;
47529;SDS011;33272;51.922;7.730;2022-12-05T00:27:34;33.67;;;19.63;;
47529;SDS011;33272;51.922;7.730;2022-12-05T00:30:03;29.07;;;19.27;;
47529;SDS011;33272;51.922;7.730;2022-12-05T00:32:32;29.37;;;19.80;;
47529;SDS011;33272;51.922;7.730;2022-12-05T00:34:59;30.83;;;18.97;;
47529;SDS011;33272;51.922;7.730;2022-12-05T00:37:26;32.57;;;20.33;;
47529;SDS011;33272;51.922;7.730;2022-12-05T00:39:53;31.73;;;19.23;;
47529;SDS011;33272;51.922;7.730;2022-12-05T00:42:20;31.17;;;19.03;;
47529;SDS011;33272;51.922;7.730;2022-12-05T00:44:48;29.57;;;19.90;;
47529;SDS011;33272;51.922;7.730;2022-12-05T00:47:18;33.93;;;20.47;;
47529;SDS011;33272;51.922;7.730;2022-12-05T00:49:45;26.53;;;18.97;;
47529;SDS011;33272;51.922;7.730;2022-12-05T00:52:12;31.47;;;19.73;;
47529;SDS011;33272;51.922;7.730;2022-12-05T00:54:39;31.03;;;19.50;;
47529;SDS011;33272;51.922;7.730;2022-12-05T00:57:06;31.97;;;20.07;;
47529;SDS011;33272;51.922;7.730;2022-12-05T00:59:33;29.77;;;19.60;;
47529;SDS011;33272;51.922;7.730;2022-12-05T01:02:00;30.80;;;20.23;;
47529;SDS011;33272;51.922;7.730;2022-12-05T01:04:28;27.90;;;19.23;;
47529;SDS011;33272;51.922;7.730;2022-12-05T01:06:56;28.37;;;18.13;;
47529;SDS011;33272;51.922;7.730;2022-12-05T01:09:24;30.50;;;18.97;;
47529;SDS011;33272;51.922;7.730;2022-12-05T01:11:51;27.80;;;18.93;;
47529;SDS011;33272;51.922;7.730;2022-12-05T01:14:19;28.47;;;18.80;;
47529;SDS011;33272;51.922;7.730;2022-12-05T01:16:49;28.33;;;18.73;;
47529;SDS011;33272;51.922;7.730;2022-12-05T01:19:20;32.10;;;19.70;;
47529;SDS011;33272;51.922;7.730;2022-12-05T01:21:52;28.30;;;19.30;;
47529;SDS011;33272;51.922;7.730;2022-12-05T01:24:20;28.50;;;19.37;;
47529;SDS011;33272;51.922;7.730;2022-12-05T01:26:48;31.77;;;19.20;;
47529;SDS011;33272;51.922;7.730;2022-12-05T01:29:16;28.20;;;18.77;;
47529;SDS011;33272;51.922;7.730;2022-12-05T01:31:48;26.47;;;18.17;;
47529;SDS011;33272;51.922;7.730;2022-12-05T01:34:16;26.07;;;17.87;;
47529;SDS011;33272;51.922;7.730;2022-12-05T01:36:44;29.50;;;18.87;;
47529;SDS011;33272;51.922;7.730;2022-12-05T01:39:13;32.47;;;18.13;;
47529;SDS011;33272;51.922;7.730;2022-12-05T01:41:42;27.67;;;17.67;;
47529;SDS011;33272;51.922;7.730;2022-12-05T01:47:24;26.83;;;18.50;;
47529;SDS011;33272;51.922;7.730;2022-12-05T01:49:54;27.50;;;17.47;;
47529;SDS011;33272;51.922;7.730;2022-12-05T01:52:22;28.97;;;19.30;;
47529;SDS011;33272;51.922;7.730;2022-12-05T01:54:59;27.13;;;18.17;;
47529;SDS011;33272;51.922;7.730;2022-12-05T01:57:31;23.70;;;17.50;;
47529;SDS011;33272;51.922;7.730;2022-12-05T02:00:00;28.70;;;19.87;;
47529;SDS011;33272;51.922;7.730;2022-12-05T02:02:34;26.43;;;18.90;;
47529;SDS011;33272;51.922;7.730;2022-12-05T02:05:03;26.50;;;17.73;;
47529;SDS011;33272;51.922;7.730;2022-12-05T02:07:32;28.03;;;18.63;;
47529;SDS011;33272;51.922;7.730;2022-12-05T02:10:05;29.13;;;18.40;;
47529;SDS011;33272;51.922;7.730;2022-12-05T02:12:33;29.73;;;18.70;;
47529;SDS011;33272;51.922;7.730;2022-12-05T02:15:04;23.93;;;16.90;;
47529;SDS011;33272;51.922;7.730;2022-12-05T02:17:53;27.97;;;17.87;;
47529;SDS011;33272;51.922;7.730;2022-12-05T02:20:40;25.77;;;18.43;;
47529;SDS011;33272;51.922;7.730;2022-12-05T02:23:26;26.83;;;17.73;;
47529;SDS011;33272;51.922;7.730;2022-12-05T02:29:28;25.57;;;18.33;;
47529;SDS011;33272;51.922;7.730;2022-12-05T02:35:33;25.97;;;17.13;;
47529;SDS011;33272;51.922;7.730;2022-12-05T02:38:14;25.87;;;18.43;;
47529;SDS011;33272;51.922;7.730;2022-12-05T02:40:53;22.33;;;16.83;;
47529;SDS011;33272;51.922;7.730;2022-12-05T02:43:31;24.83;;;17.27;;
47529;SDS011;33272;51.922;7.730;2022-12-05T02:46:04;29.03;;;18.47;;
47529;SDS011;33272;51.922;7.730;2022-12-05T02:48:37;24.57;;;16.93;;
47529;SDS011;33272;51.922;7.730;2022-12-05T02:51:07;26.03;;;17.60;;
47529;SDS011;33272;51.922;7.730;2022-12-05T02:53:38;26.13;;;17.43;;
47529;SDS011;33272;51.922;7.730;2022-12-05T02:56:08;26.10;;;17.07;;
47529;SDS011;33272;51.922;7.730;2022-12-05T02:58:37;27.17;;;17.97;;
47529;SDS011;33272;51.922;7.730;2022-12-05T03:01:14;25.07;;;17.33;;
47529;SDS011;33272;51.922;7.730;2022-12-05T03:03:43;26.13;;;17.50;;
47529;SDS011;33272;51.922;7.730;2022-12-05T03:06:11;29.77;;;18.20;;
47529;SDS011;33272;51.922;7.730;2022-12-05T03:08:41;24.73;;;16.90;;
47529;SDS011;33272;51.922;7.730;2022-12-05T03:11:13;27.37;;;18.13;;
47529;SDS011;33272;51.922;7.730;2022-12-05T03:13:42;26.70;;;17.33;;
47529;SDS011;33272;51.922;7.730;2022-12-05T03:16:16;27.03;;;17.13;;
47529;SDS011;33272;51.922;7.730;2022-12-05T03:18:49;24.10;;;16.90;;
47529;SDS011;33272;51.922;7.730;2022-12-05T03:21:22;25.43;;;17.77;;
47529;SDS011;33272;51.922;7.730;2022-12-05T03:23:57;24.23;;;16.63;;
47529;SDS011;33272;51.922;7.730;2022-12-05T03:26:36;25.37;;;16.20;;
47529;SDS011;33272;51.922;7.730;2022-12-05T03:29:18;27.37;;;18.70;;
47529;SDS011;33272;51.922;7.730;2022-12-05T03:31:53;23.80;;;16.33;;
47529;SDS011;33272;51.922;7.730;2022-12-05T03:34:33;25.23;;;16.30;;
47529;SDS011;33272;51.922;7.730;2022-12-05T03:37:18;24.93;;;17.00;;
47529;SDS011;33272;51.922;7.730;2022-12-05T03:39:54;23.67;;;16.03;;
47529;SDS011;33272;51.922;7.730;2022-12-05T03:42:32;25.80;;;16.83;;
47529;SDS011;33272;51.922;7.730;2022-12-05T03:45:04;24.10;;;18.10;;
47529;SDS011;33272;51.922;7.730;2022-12-05T03:47:39;23.70;;;16.63;;
47529;SDS011;33272;51.922;7.730;2022-12-05T03:50:17;25.47;;;16.40;;
47529;SDS011;33272;51.922;7.730;2022-12-05T03:52:48;25.67;;;17.53;;
47529;SDS011;33272;51.922;7.730;2022-12-05T03:55:21;24.13;;;15.57;;
47529;SDS011;33272;51.922;7.730;2022-12-05T03:57:52;23.90;;;16.33;;
47529;SDS011;33272;51.922;7.730;2022-12-05T04:00:23;25.80;;;16.80;;
47529;SDS011;33272;51.922;7.730;2022-12-05T04:02:53;23.17;;;15.30;;
47529;SDS011;33272;51.922;7.730;2022-12-05T04:05:25;22.33;;;15.60;;
47529;SDS011;33272;51.922;7.730;2022-12-05T04:07:57;23.53;;;16.23;;
47529;SDS011;33272;51.922;7.730;2022-12-05T04:10:30;23.83;;;16.17;;
47529;SDS011;33272;51.922;7.730;2022-12-05T04:13:12;25.30;;;17.07;;
47529;SDS011;33272;51.922;7.730;2022-12-05T04:15:44;21.63;;;14.93;;
47529;SDS011;33272;51.922;7.730;2022-12-05T04:18:37;24.50;;;16.20;;
47529;SDS011;33272;51.922;7.730;2022-12-05T04:21:13;21.60;;;14.77;;
47529;SDS011;33272;51.922;7.730;2022-12-05T04:23:58;23.87;;;14.87;;
47529;SDS011;33272;51.922;7.730;2022-12-05T04:26:44;21.07;;;15.50;;
47529;SDS011;33272;51.922;7.730;2022-12-05T04:29:19;23.17;;;15.57;;
47529;SDS011;33272;51.922;7.730;2022-12-05T04:31:55;22.80;;;15.53;;
47529;SDS011;33272;51.922;7.730;2022-12-05T04:34:29;22.77;;;15.80;;
47529;SDS011;33272;51.922;7.730;2022-12-05T04:36:58;23.63;;;15.27;;
47529;SDS011;33272;51.922;7.730;2022-12-05T04:39:31;21.83;;;15.90;;
47529;SDS011;33272;51.922;7.730;2022-12-05T04:42:04;20.43;;;14.83;;
47529;SDS011;33272;51.922;7.730;2022-12-05T04:44:35;22.40;;;15.33;;
47529;SDS011;33272;51.922;7.730;2022-12-05T04:47:05;22.83;;;16.13;;
47529;SDS011;33272;51.922;7.730;2022-12-05T04:49:36;23.43;;;15.40;;
47529;SDS011;33272;51.922;7.730;2022-12-05T04:52:08;24.00;;;15.60;;
47529;SDS011;33272;51.922;7.730;2022-12-05T04:54:37;23.20;;;15.17;;
47529;SDS011;33272;51.922;7.730;2022-12-05T04:57:11;23.40;;;13.93;;
47529;SDS011;33272;51.922;7.730;2022-12-05T04:59:42;19.20;;;15.57;;
47529;SDS011;33272;51.922;7.730;2022-12-05T05:02:11;19.70;;;14.87;;
47529;SDS011;33272;51.922;7.730;2022-12-05T05:04:45;22.57;;;15.13;;
47529;SDS011;33272;51.922;7.730;2022-12-05T05:07:15;21.17;;;15.13;;
47529;SDS011;33272;51.922;7.730;2022-12-05T05:09:43;21.57;;;15.43;;
47529;SDS011;33272;51.922;7.730;2022-12-05T05:12:11;20.80;;;15.40;;
47529;SDS011;33272;51.922;7.730;2022-12-05T05:14:38;22.50;;;15.00;;
47529;SDS011;33272;51.922;7.730;2022-12-05T05:17:05;20.70;;;15.50;;
47529;SDS011;33272;51.922;7.730;2022-12-05T05:19:32;20.20;;;14.70;;
47529;SDS011;33272;51.922;7.730;2022-12-05T05:22:00;21.97;;;15.53;;
47529;SDS011;33272;51.922;7.730;2022-12-05T05:24:27;24.20;;;15.70;;
47529;SDS011;33272;51.922;7.730;2022-12-05T05:26:54;22.77;;;14.57;;
47529;SDS011;33272;51.922;7.730;2022-12-05T05:29:21;22.50;;;15.57;;
47529;SDS011;33272;51.922;7.730;2022-12-05T05:31:48;19.33;;;14.50;;
47529;SDS011;33272;51.922;7.730;2022-12-05T05:34:15;21.27;;;14.80;;
47529;SDS011;33272;51.922;7.730;2022-12-05T05:36:42;21.83;;;15.43;;
47529;SDS011;33272;51.922;7.730;2022-12-05T05:39:12;22.13;;;14.60;;
47529;SDS011;33272;51.922;7.730;2022-12-05T05:41:41;21.50;;;14.83;;
47529;SDS011;33272;51.922;7.730;2022-12-05T05:44:09;21.43;;;14.67;;
47529;SDS011;33272;51.922;7.730;2022-12-05T05:46:36;23.33;;;15.37;;
47529;SDS011;33272;51.922;7.730;2022-12-05T05:49:03;19.40;;;14.17;;
47529;SDS011;33272;51.922;7.730;2022-12-05T05:51:31;20.47;;;14.80;;
47529;SDS011;33272;51.922;7.730;2022-12-05T05:53:58;21.23;;;15.03;;
47529;SDS011;33272;51.922;7.730;2022-12-05T05:56:26;23.23;;;15.50;;
47529;SDS011;33272;51.922;7.730;2022-12-05T05:58:54;21.33;;;14.67;;
47529;SDS011;33272;51.922;7.730;2022-12-05T06:01:23;22.20;;;15.03;;
47529;SDS011;33272;51.922;7.730;2022-12-05T06:03:50;22.00;;;15.20;;
47529;SDS011;33272;51.922;7.730;2022-12-05T06:06:17;19.90;;;13.87;;
47529;SDS011;33272;51.922;7.730;2022-12-05T06:08:45;22.33;;;14.87;;
47529;SDS011;33272;51.922;7.730;2022-12-05T06:11:13;22.00;;;14.50;;
47529;SDS011;33272;51.922;7.730;2022-12-05T06:13:44;18.13;;;13.20;;
47529;SDS011;33272;51.922;7.730;2022-12-05T06:16:12;20.60;;;13.87;;
47529;SDS011;33272;51.922;7.730;2022-12-05T06:18:41;22.60;;;14.40;;
47529;SDS011;33272;51.922;7.730;2022-12-05T06:21:09;22.97;;;15.47;;
47529;SDS011;33272;51.922;7.730;2022-12-05T06:23:37;23.27;;;15.13;;
47529;SDS011;33272;51.922;7.730;2022-12-05T06:26:05;23.50;;;14.60;;
47529;SDS011;33272;51.922;7.730;2022-12-05T06:28:36;19.83;;;14.40;;
47529;SDS011;33272;51.922;7.730;2022-12-05T06:31:07;19.90;;;13.43;;
47529;SDS011;33272;51.922;7.730;2022-12-05T06:33:34;20.77;;;15.07;;
47529;SDS011;33272;51.922;7.730;2022-12-05T06:36:03;19.43;;;13.87;;
47529;SDS011;33272;51.922;7.730;2022-12-05T06:38:31;19.00;;;14.77;;
47529;SDS011;33272;51.922;7.730;2022-12-05T06:40:59;21.67;;;14.80;;
47529;SDS011;33272;51.922;7.730;2022-12-05T06:43:29;20.53;;;14.40;;
47529;SDS011;33272;51.922;7.730;2022-12-05T06:45:56;18.97;;;13.53;;
47529;SDS011;33272;51.922;7.730;2022-12-05T06:48:24;21.47;;;15.77;;
47529;SDS011;33272;51.922;7.730;2022-12-05T06:50:51;19.80;;;14.57;;
47529;SDS011;33272;51.922;7.730;2022-12-05T06:53:19;19.97;;;14.40;;
47529;SDS011;33272;51.922;7.730;2022-12-05T06:55:53;19.57;;;14.27;;
47529;SDS011;33272;51.922;7.730;2022-12-05T06:58:21;19.07;;;14.13;;
47529;SDS011;33272;51.922;7.730;2022-12-05T07:00:48;21.67;;;14.07;;
47529;SDS011;33272;51.922;7.730;2022-12-05T07:03:34;20.43;;;14.77;;
47529;SDS011;33272;51.922;7.730;2022-12-05T07:06:01;20.37;;;14.27;;
47529;SDS011;33272;51.922;7.730;2022-12-05T07:08:30;21.50;;;14.20;;
47529;SDS011;33272;51.922;7.730;2022-12-05T07:10:57;18.77;;;14.27;;
47529;SDS011;33272;51.922;7.730;2022-12-05T07:13:24;18.67;;;14.40;;
47529;SDS011;33272;51.922;7.730;2022-12-05T07:15:51;17.70;;;13.60;;
47529;SDS011;33272;51.922;7.730;2022-12-05T07:18:18;18.00;;;13.30;;
47529;SDS011;33272;51.922;7.730;2022-12-05T07:20:50;20.20;;;13.80;;
47529;SDS011;33272;51.922;7.730;2022-12-05T07:23:22;19.50;;;14.37;;
47529;SDS011;33272;51.922;7.730;2022-12-05T07:25:49;20.23;;;14.20;;
47529;SDS011;33272;51.922;7.730;2022-12-05T07:28:16;19.33;;;13.40;;
47529;SDS011;33272;51.922;7.730;2022-12-05T07:30:43;18.43;;;14.23;;
47529;SDS011;33272;51.922;7.730;2022-12-05T07:33:10;17.07;;;12.80;;
47529;SDS011;33272;51.922;7.730;2022-12-05T07:35:37;19.50;;;14.10;;
47529;SDS011;33272;51.922;7.730;2022-12-05T07:38:05;20.83;;;14.77;;
47529;SDS011;33272;51.922;7.730;2022-12-05T07:40:32;18.57;;;13.70;;
47529;SDS011;33272;51.922;7.730;2022-12-05T07:42:59;19.50;;;13.43;;
47529;SDS011;33272;51.922;7.730;2022-12-05T07:45:26;18.50;;;13.47;;
47529;SDS011;33272;51.922;7.730;2022-12-05T07:47:53;15.93;;;13.07;;
47529;SDS011;33272;51.922;7.730;2022-12-05T07:50:20;16.40;;;12.20;;
47529;SDS011;33272;51.922;7.730;2022-12-05T07:52:47;21.30;;;14.60;;
47529;SDS011;33272;51.922;7.730;2022-12-05T07:55:15;20.13;;;13.83;;
47529;SDS011;33272;51.922;7.730;2022-12-05T07:57:43;16.53;;;12.67;;
47529;SDS011;33272;51.922;7.730;2022-12-05T08:00:10;19.83;;;13.63;;
47529;SDS011;33272;51.922;7.730;2022-12-05T08:02:39;18.37;;;13.20;;
47529;SDS011;33272;51.922;7.730;2022-12-05T08:05:06;19.10;;;12.83;;
47529;SDS011;33272;51.922;7.730;2022-12-05T08:07:33;18.40;;;13.57;;
47529;SDS011;33272;51.922;7.730;2022-12-05T08:10:00;21.23;;;13.77;;
47529;SDS011;33272;51.922;7.730;2022-12-05T08:12:30;18.67;;;13.23;;
47529;SDS011;33272;51.922;7.730;2022-12-05T08:14:57;18.37;;;13.63;;
47529;SDS011;33272;51.922;7.730;2022-12-05T08:17:24;17.00;;;13.87;;
47529;SDS011;33272;51.922;7.730;2022-12-05T08:19:51;18.13;;;13.33;;
47529;SDS011;33272;51.922;7.730;2022-12-05T08:22:18;20.03;;;14.13;;
47529;SDS011;33272;51.922;7.730;2022-12-05T08:24:45;19.43;;;13.13;;
47529;SDS011;33272;51.922;7.730;2022-12-05T08:27:14;20.93;;;13.87;;
47529;SDS011;33272;51.922;7.730;2022-12-05T08:29:44;18.63;;;13.93;;
47529;SDS011;33272;51.922;7.730;2022-12-05T08:32:11;19.90;;;13.87;;
47529;SDS011;33272;51.922;7.730;2022-12-05T08:34:38;18.53;;;13.10;;
47529;SDS011;33272;51.922;7.730;2022-12-05T08:37:05;20.43;;;14.70;;
47529;SDS011;33272;51.922;7.730;2022-12-05T08:39:32;17.40;;;13.53;;
47529;SDS011;33272;51.922;7.730;2022-12-05T08:42:00;18.60;;;13.30;;
47529;SDS011;33272;51.922;7.730;2022-12-05T08:44:27;17.87;;;14.23;;
47529;SDS011;33272;51.922;7.730;2022-12-05T08:46:56;19.50;;;14.00;;
47529;SDS011;33272;51.922;7.730;2022-12-05T08:49:23;18.23;;;13.37;;
47529;SDS011;33272;51.922;7.730;2022-12-05T08:51:50;20.13;;;13.70;;
47529;SDS011;33272;51.922;7.730;2022-12-05T08:54:17;18.67;;;12.50;;
47529;SDS011;33272;51.922;7.730;2022-12-05T08:56:44;17.93;;;13.33;;
47529;SDS011;33272;51.922;7.730;2022-12-05T08:59:11;21.17;;;15.03;;
47529;SDS011;33272;51.922;7.730;2022-12-05T09:01:38;17.80;;;13.67;;
47529;SDS011;33272;51.922;7.730;2022-12-05T09:04:07;20.37;;;13.33;;
47529;SDS011;33272;51.922;7.730;2022-12-05T09:06:35;20.33;;;13.60;;
47529;SDS011;33272;51.922;7.730;2022-12-05T09:09:04;20.53;;;14.47;;
47529;SDS011;33272;51.922;7.730;2022-12-05T09:11:36;19.83;;;13.73;;
47529;SDS011;33272;51.922;7.730;2022-12-05T09:14:10;17.43;;;12.70;;
47529;SDS011;33272;51.922;7.730;2022-12-05T09:16:37;17.53;;;11.90;;
47529;SDS011;33272;51.922;7.730;2022-12-05T09:19:05;14.40;;;11.50;;
47529;SDS011;33272;51.922;7.730;2022-12-05T09:21:38;13.30;;;10.60;;
47529;SDS011;33272;51.922;7.730;2022-12-05T09:24:05;13.93;;;10.63;;
47529;SDS011;33272;51.922;7.730;2022-12-05T09:26:32;15.07;;;10.73;;
47529;SDS011;33272;51.922;7.730;2022-12-05T09:28:59;15.70;;;11.30;;
47529;SDS011;33272;51.922;7.730;2022-12-05T09:31:27;14.63;;;11.00;;
47529;SDS011;33272;51.922;7.730;2022-12-05T09:33:54;14.10;;;10.67;;
47529;SDS011;33272;51.922;7.730;2022-12-05T09:36:23;16.40;;;12.13;;
47529;SDS011;33272;51.922;7.730;2022-12-05T09:38:52;13.70;;;11.00;;
47529;SDS011;33272;51.922;7.730;2022-12-05T09:41:25;15.63;;;11.67;;
47529;SDS011;33272;51.922;7.730;2022-12-05T09:44:40;13.73;;;10.10;;
47529;SDS011;33272;51.922;7.730;2022-12-05T09:47:28;14.57;;;11.10;;
47529;SDS011;33272;51.922;7.730;2022-12-05T09:50:11;13.30;;;10.07;;
47529;SDS011;33272;51.922;7.730;2022-12-05T09:52:45;14.93;;;11.03;;
47529;SDS011;33272;51.922;7.730;2022-12-05T09:55:43;14.10;;;10.13;;
47529;SDS011;33272;51.922;7.730;2022-12-05T09:58:17;13.50;;;10.37;;
47529;SDS011;33272;51.922;7.730;2022-12-05T10:00:57;13.83;;;10.80;;
47529;SDS011;33272;51.922;7.730;2022-12-05T10:03:34;14.93;;;10.43;;
47529;SDS011;33272;51.922;7.730;2022-12-05T10:06:10;14.90;;;10.00;;
47529;SDS011;33272;51.922;7.730;2022-12-05T10:08:50;13.03;;;10.07;;
47529;SDS011;33272;51.922;7.730;2022-12-05T10:11:35;13.60;;;10.17;;
47529;SDS011;33272;51.922;7.730;2022-12-05T10:14:10;11.53;;;9.93;;
47529;SDS011;33272;51.922;7.730;2022-12-05T10:16:47;13.70;;;10.10;;
47529;SDS011;33272;51.922;7.730;2022-12-05T10:19:21;15.37;;;10.23;;
47529;SDS011;33272;51.922;7.730;2022-12-05T10:21:54;14.20;;;10.70;;
47529;SDS011;33272;51.922;7.730;2022-12-05T10:24:29;19.03;;;10.60;;
47529;SDS011;33272;51.922;7.730;2022-12-05T10:27:02;13.97;;;10.53;;
47529;SDS011;33272;51.922;7.730;2022-12-05T10:29:36;17.67;;;11.27;;
47529;SDS011;33272;51.922;7.730;2022-12-05T10:32:10;14.87;;;10.67;;
47529;SDS011;33272;51.922;7.730;2022-12-05T10:34:42;15.07;;;10.60;;
47529;SDS011;33272;51.922;7.730;2022-12-05T10:37:12;14.17;;;11.10;;
47529;SDS011;33272;51.922;7.730;2022-12-05T10:39:43;12.97;;;10.07;;
47529;SDS011;33272;51.922;7.730;2022-12-05T10:42:11;15.07;;;11.20;;
47529;SDS011;33272;51.922;7.730;2022-12-05T10:44:42;12.70;;;10.70;;
47529;SDS011;33272;51.922;7.730;2022-12-05T10:47:09;14.03;;;10.87;;
47529;SDS011;33272;51.922;7.730;2022-12-05T10:49:37;14.23;;;10.47;;
47529;SDS011;33272;51.922;7.730;2022-12-05T10:52:05;12.80;;;10.13;;
47529;SDS011;33272;51.922;7.730;2022-12-05T10:54:34;13.80;;;9.97;;
47529;SDS011;33272;51.922;7.730;2022-12-05T10:57:20;11.50;;;9.63;;
47529;SDS011;33272;51.922;7.730;2022-12-05T10:59:49;12.70;;;10.10;;
47529;SDS011;33272;51.922;7.730;2022-12-05T11:02:20;12.03;;;8.97;;
47529;SDS011;33272;51.922;7.730;2022-12-05T11:04:51;11.40;;;9.57;;
47529;SDS011;33272;51.922;7.730;2022-12-05T11:07:22;12.00;;;10.20;;
47529;SDS011;33272;51.922;7.730;2022-12-05T11:09:54;12.97;;;10.57;;
47529;SDS011;33272;51.922;7.730;2022-12-05T11:12:23;12.17;;;10.13;;
47529;SDS011;33272;51.922;7.730;2022-12-05T11:14:58;11.47;;;8.83;;
47529;SDS011;33272;51.922;7.730;2022-12-05T11:17:30;12.23;;;8.93;;
47529;SDS011;33272;51.922;7.730;2022-12-05T11:19:59;11.50;;;9.77;;
47529;SDS011;33272;51.922;7.730;2022-12-05T11:22:31;11.50;;;8.20;;
47529;SDS011;33272;51.922;7.730;2022-12-05T11:25:00;9.77;;;8.20;;
47529;SDS011;33272;51.922;7.730;2022-12-05T11:27:49;9.90;;;8.60;;
47529;SDS011;33272;51.922;7.730;2022-12-05T11:30:16;9.90;;;8.50;;
47529;SDS011;33272;51.922;7.730;2022-12-05T11:32:46;10.47;;;7.97;;
47529;SDS011;33272;51.922;7.730;2022-12-05T11:35:17;12.17;;;8.40;;
47529;SDS011;33272;51.922;7.730;2022-12-05T11:37:52;9.97;;;8.77;;
47529;SDS011;33272;51.922;7.730;2022-12-05T11:40:24;12.50;;;8.53;;
47529;SDS011;33272;51.922;7.730;2022-12-05T11:43:13;11.33;;;8.13;;
47529;SDS011;33272;51.922;7.730;2022-12-05T11:46:27;12.37;;;9.50;;
47529;SDS011;33272;51.922;7.730;2022-12-05T11:49:10;11.83;;;10.10;;
47529;SDS011;33272;51.922;7.730;2022-12-05T11:51:57;12.33;;;10.23;;
47529;SDS011;33272;51.922;7.730;2022-12-05T11:54:44;12.50;;;9.87;;
47529;SDS011;33272;51.922;7.730;2022-12-05T11:57:27;12.13;;;9.13;;
47529;SDS011;33272;51.922;7.730;2022-12-05T12:00:16;12.27;;;10.20;;
47529;SDS011;33272;51.922;7.730;2022-12-05T12:06:06;10.70;;;9.27;;
47529;SDS011;33272;51.922;7.730;2022-12-05T12:08:51;11.60;;;10.13;;
47529;SDS011;33272;51.922;7.730;2022-12-05T12:11:41;12.03;;;9.93;;
47529;SDS011;33272;51.922;7.730;2022-12-05T12:14:18;13.07;;;10.83;;
47529;SDS011;33272;51.922;7.730;2022-12-05T12:17:00;11.67;;;10.23;;
47529;SDS011;33272;51.922;7.730;2022-12-05T12:19:45;14.27;;;11.23;;
47529;SDS011;33272;51.922;7.730;2022-12-05T12:22:32;14.83;;;11.67;;
47529;SDS011;33272;51.922;7.730;2022-12-05T12:25:22;13.20;;;10.43;;
47529;SDS011;33272;51.922;7.730;2022-12-05T12:28:00;12.87;;;10.30;;
47529;SDS011;33272;51.922;7.730;2022-12-05T12:30:47;12.87;;;10.00;;
47529;SDS011;33272;51.922;7.730;2022-12-05T12:33:33;12.37;;;9.97;;
47529;SDS011;33272;51.922;7.730;2022-12-05T12:36:11;13.67;;;10.47;;
47529;SDS011;33272;51.922;7.730;2022-12-05T12:38:49;14.83;;;10.50;;
47529;SDS011;33272;51.922;7.730;2022-12-05T12:41:43;11.53;;;9.47;;
47529;SDS011;33272;51.922;7.730;2022-12-05T12:44:41;15.77;;;11.17;;
47529;SDS011;33272;51.922;7.730;2022-12-05T12:47:30;13.10;;;9.97;;
47529;SDS011;33272;51.922;7.730;2022-12-05T12:50:15;10.90;;;8.83;;
47529;SDS011;33272;51.922;7.730;2022-12-05T12:52:51;12.80;;;9.50;;
47529;SDS011;33272;51.922;7.730;2022-12-05T12:55:40;10.30;;;8.37;;
47529;SDS011;33272;51.922;7.730;2022-12-05T12:58:30;11.53;;;9.20;;
47529;SDS011;33272;51.922;7.730;2022-12-05T13:01:14;13.33;;;10.20;;
47529;SDS011;33272;51.922;7.730;2022-12-05T13:03:55;10.67;;;9.17;;
47529;SDS011;33272;51.922;7.730;2022-12-05T13:06:31;11.03;;;9.43;;
47529;SDS011;33272;51.922;7.730;2022-12-05T13:09:05;11.53;;;10.33;;
47529;SDS011;33272;51.922;7.730;2022-12-05T13:11:41;11.63;;;10.00;;
47529;SDS011;33272;51.922;7.730;2022-12-05T13:14:11;12.97;;;10.27;;
47529;SDS011;33272;51.922;7.730;2022-12-05T13:16:41;13.77;;;11.13;;
47529;SDS011;33272;51.922;7.730;2022-12-05T13:19:19;12.10;;;10.20;;
47529;SDS011;33272;51.922;7.730;2022-12-05T13:21:54;13.97;;;10.80;;
47529;SDS011;33272;51.922;7.730;2022-12-05T13:24:24;14.40;;;11.67;;
47529;SDS011;33272;51.922;7.730;2022-12-05T13:26:53;12.73;;;10.67;;
47529;SDS011;33272;51.922;7.730;2022-12-05T13:29:30;13.87;;;10.93;;
47529;SDS011;33272;51.922;7.730;2022-12-05T13:32:00;13.33;;;11.30;;
47529;SDS011;33272;51.922;7.730;2022-12-05T13:37:19;12.57;;;10.10;;
47529;SDS011;33272;51.922;7.730;2022-12-05T13:43:11;16.57;;;11.70;;
47529;SDS011;33272;51.922;7.730;2022-12-05T13:45:51;14.63;;;11.03;;
47529;SDS011;33272;51.922;7.730;2022-12-05T13:48:31;13.57;;;11.23;;
47529;SDS011;33272;51.922;7.730;2022-12-05T13:51:02;13.43;;;11.30;;
47529;SDS011;33272;51.922;7.730;2022-12-05T13:53:35;12.73;;;10.60;;
47529;SDS011;33272;51.922;7.730;2022-12-05T13:56:13;13.07;;;10.40;;
47529;SDS011;33272;51.922;7.730;2022-12-05T13:58:52;11.50;;;9.60;;
47529;SDS011;33272;51.922;7.730;2022-12-05T14:07:37;13.20;;;11.27;;
47529;SDS011;33272;51.922;7.730;2022-12-05T14:10:09;13.80;;;11.17;;
47529;SDS011;33272;51.922;7.730;2022-12-05T14:12:50;15.07;;;11.27;;
47529;SDS011;33272;51.922;7.730;2022-12-05T14:15:27;12.53;;;10.47;;
47529;SDS011;33272;51.922;7.730;2022-12-05T14:18:03;12.33;;;10.57;;
47529;SDS011;33272;51.922;7.730;2022-12-05T14:20:45;11.30;;;10.03;;
47529;SDS011;33272;51.922;7.730;2022-12-05T14:23:21;12.70;;;9.33;;
47529;SDS011;33272;51.922;7.730;2022-12-05T14:26:10;12.63;;;10.87;;
47529;SDS011;33272;51.922;7.730;2022-12-05T14:29:05;16.23;;;11.70;;
47529;SDS011;33272;51.922;7.730;2022-12-05T14:31:53;15.47;;;12.03;;
47529;SDS011;33272;51.922;7.730;2022-12-05T14:34:35;16.07;;;12.17;;
47529;SDS011;33272;51.922;7.730;2022-12-05T14:37:19;15.63;;;11.53;;
47529;SDS011;33272;51.922;7.730;2022-12-05T14:39:55;15.93;;;12.37;;
47529;SDS011;33272;51.922;7.730;2022-12-05T14:42:28;14.00;;;11.63;;
47529;SDS011;33272;51.922;7.730;2022-12-05T14:45:16;15.27;;;12.30;;
47529;SDS011;33272;51.922;7.730;2022-12-05T14:47:54;11.77;;;10.57;;
47529;SDS011;33272;51.922;7.730;2022-12-05T14:50:39;13.57;;;11.70;;
47529;SDS011;33272;51.922;7.730;2022-12-05T14:53:23;13.67;;;10.50;;
47529;SDS011;33272;51.922;7.730;2022-12-05T14:56:16;17.93;;;12.80;;
47529;SDS011;33272;51.922;7.730;2022-12-05T14:58:49;16.60;;;13.50;;
47529;SDS011;33272;51.922;7.730;2022-12-05T15:01:22;14.20;;;12.70;;
47529;SDS011;33272;51.922;7.730;2022-12-05T15:06:46;15.47;;;12.03;;
47529;SDS011;33272;51.922;7.730;2022-12-05T15:12:24;16.37;;;12.47;;
47529;SDS011;33272;51.922;7.730;2022-12-05T15:17:45;15.43;;;12.27;;
47529;SDS011;33272;51.922;7.730;2022-12-05T15:20:18;18.03;;;13.17;;
47529;SDS011;33272;51.922;7.730;2022-12-05T15:22:56;17.80;;;14.37;;
47529;SDS011;33272;51.922;7.730;2022-12-05T15:25:31;17.37;;;13.67;;
47529;SDS011;33272;51.922;7.730;2022-12-05T15:28:00;18.30;;;14.13;;
47529;SDS011;33272;51.922;7.730;2022-12-05T15:30:32;18.67;;;14.23;;